sensor_id;sensor_type;location;lat;lon;timestamp;P1;durP1;ratioP1;P2;durP2;ratioP2
22871;SDS011;11603;44.910;8.630;2023-01-10T00:01:45;4.03;;;2.80;;
22871;SDS011;11603;44.910;8.630;2023-01-10T00:04:11;4.53;;;2.97;;
22871;SDS011;11603;44.910;8.630;2023-01-10T00:06:38;4.75;;;2.70;;
22871;SDS011;11603;44.910;8.630;2023-01-10T00:09:03;4.25;;;2.53;;
22871;SDS011;11603;44.910;8.630;2023-01-10T00:11:29;8.40;;;2.63;;
22871;SDS011;11603;44.910;8.630;2023-01-10T00:14:13;4.13;;;2.50;;
22871;SDS011;11603;44.910;8.630;2023-01-10T00:16:39;9.27;;;2.85;;
22871;SDS011;11603;44.910;8.630;2023-01-10T00:19:06;6.05;;;2.47;;
22871;SDS011;11603;44.910;8.630;2023-01-10T00:21:34;4.25;;;2.80;;
22871;SDS011;11603;44.910;8.630;2023-01-10T00:24:00;3.85;;;2.58;;
22871;SDS011;11603;44.910;8.630;2023-01-10T00:26:41;3.42;;;2.72;;
22871;SDS011;11603;44.910;8.630;2023-01-10T00:29:07;5.95;;;2.78;;
22871;SDS011;11603;44.910;8.630;2023-01-10T00:31:33;4.25;;;2.50;;
22871;SDS011;11603;44.910;8.630;2023-01-10T00:33:58;5.22;;;2.90;;
22871;SDS011;11603;44.910;8.630;2023-01-10T00:36:23;4.30;;;2.63;;
22871;SDS011;11603;44.910;8.630;2023-01-10T00:38:49;4.00;;;2.70;;
22871;SDS011;11603;44.910;8.630;2023-01-10T00:41:14;4.45;;;2.58;;
22871;SDS011;11603;44.910;8.630;2023-01-10T00:43:58;4.95;;;2.85;;
22871;SDS011;11603;44.910;8.630;2023-01-10T00:46:24;4.47;;;3.03;;
22871;SDS011;11603;44.910;8.630;2023-01-10T00:48:50;4.65;;;3.13;;
22871;SDS011;11603;44.910;8.630;2023-01-10T00:51:17;3.55;;;2.53;;
22871;SDS011;11603;44.910;8.630;2023-01-10T00:53:42;4.47;;;2.75;;
22871;SDS011;11603;44.910;8.630;2023-01-10T00:56:08;5.28;;;3.13;;
22871;SDS011;11603;44.910;8.630;2023-01-10T00:58:34;4.03;;;2.78;;
22871;SDS011;11603;44.910;8.630;2023-01-10T01:00:59;4.03;;;2.92;;
22871;SDS011;11603;44.910;8.630;2023-01-10T01:03:25;6.40;;;2.92;;
22871;SDS011;11603;44.910;8.630;2023-01-10T01:05:51;4.00;;;2.80;;
22871;SDS011;11603;44.910;8.630;2023-01-10T01:08:17;3.53;;;2.25;;
22871;SDS011;11603;44.910;8.630;2023-01-10T01:10:44;3.38;;;2.58;;
22871;SDS011;11603;44.910;8.630;2023-01-10T01:13:17;3.78;;;2.33;;
22871;SDS011;11603;44.910;8.630;2023-01-10T01:15:44;3.97;;;2.40;;
22871;SDS011;11603;44.910;8.630;2023-01-10T01:18:14;5.55;;;2.80;;
22871;SDS011;11603;44.910;8.630;2023-01-10T01:20:42;3.95;;;2.50;;
22871;SDS011;11603;44.910;8.630;2023-01-10T01:23:10;4.13;;;2.45;;
22871;SDS011;11603;44.910;8.630;2023-01-10T01:25:36;5.07;;;2.72;;
22871;SDS011;11603;44.910;8.630;2023-01-10T01:28:01;5.13;;;2.65;;
22871;SDS011;11603;44.910;8.630;2023-01-10T01:30:27;6.50;;;2.92;;
22871;SDS011;11603;44.910;8.630;2023-01-10T01:32:52;3.92;;;2.85;;
22871;SDS011;11603;44.910;8.630;2023-01-10T01:35:18;6.60;;;3.40;;
22871;SDS011;11603;44.910;8.630;2023-01-10T01:37:43;4.95;;;3.47;;
22871;SDS011;11603;44.910;8.630;2023-01-10T01:40:13;5.82;;;3.47;;
22871;SDS011;11603;44.910;8.630;2023-01-10T01:42:41;6.25;;;3.47;;
22871;SDS011;11603;44.910;8.630;2023-01-10T01:47:54;4.03;;;3.00;;
22871;SDS011;11603;44.910;8.630;2023-01-10T01:50:37;5.28;;;3.25;;
22871;SDS011;11603;44.910;8.630;2023-01-10T01:53:07;6.68;;;2.97;;
22871;SDS011;11603;44.910;8.630;2023-01-10T01:55:36;5.18;;;2.40;;
22871;SDS011;11603;44.910;8.630;2023-01-10T01:58:05;5.25;;;2.80;;
22871;SDS011;11603;44.910;8.630;2023-01-10T02:00:36;4.45;;;2.63;;
22871;SDS011;11603;44.910;8.630;2023-01-10T02:03:02;6.53;;;3.00;;
22871;SDS011;11603;44.910;8.630;2023-01-10T02:05:29;3.38;;;2.50;;
22871;SDS011;11603;44.910;8.630;2023-01-10T02:07:58;4.88;;;3.00;;
22871;SDS011;11603;44.910;8.630;2023-01-10T02:13:03;6.45;;;2.83;;
22871;SDS011;11603;44.910;8.630;2023-01-10T02:15:30;3.70;;;2.80;;
22871;SDS011;11603;44.910;8.630;2023-01-10T02:17:56;6.95;;;2.80;;
22871;SDS011;11603;44.910;8.630;2023-01-10T02:20:24;4.88;;;2.88;;
22871;SDS011;11603;44.910;8.630;2023-01-10T02:34:31;9.07;;;3.15;;
22871;SDS011;11603;44.910;8.630;2023-01-10T02:37:07;4.65;;;2.55;;
22871;SDS011;11603;44.910;8.630;2023-01-10T02:39:57;3.40;;;2.45;;
22871;SDS011;11603;44.910;8.630;2023-01-10T02:42:46;4.38;;;2.78;;
22871;SDS011;11603;44.910;8.630;2023-01-10T02:45:30;3.60;;;2.53;;
22871;SDS011;11603;44.910;8.630;2023-01-10T02:48:10;3.92;;;2.58;;
22871;SDS011;11603;44.910;8.630;2023-01-10T02:53:17;3.67;;;2.40;;
22871;SDS011;11603;44.910;8.630;2023-01-10T03:07:42;2.78;;;2.00;;
22871;SDS011;11603;44.910;8.630;2023-01-10T03:13:01;2.75;;;2.30;;
22871;SDS011;11603;44.910;8.630;2023-01-10T03:15:46;3.47;;;2.10;;
22871;SDS011;11603;44.910;8.630;2023-01-10T03:18:15;3.97;;;1.85;;
22871;SDS011;11603;44.910;8.630;2023-01-10T03:20:45;3.42;;;1.98;;
22871;SDS011;11603;44.910;8.630;2023-01-10T03:23:13;3.92;;;2.45;;
22871;SDS011;11603;44.910;8.630;2023-01-10T03:25:40;3.58;;;2.45;;
22871;SDS011;11603;44.910;8.630;2023-01-10T03:28:13;3.33;;;2.38;;
22871;SDS011;11603;44.910;8.630;2023-01-10T03:30:57;3.22;;;2.30;;
22871;SDS011;11603;44.910;8.630;2023-01-10T03:33:43;3.00;;;2.30;;
22871;SDS011;11603;44.910;8.630;2023-01-10T03:44:36;2.95;;;2.17;;
22871;SDS011;11603;44.910;8.630;2023-01-10T03:47:23;3.67;;;2.40;;
22871;SDS011;11603;44.910;8.630;2023-01-10T03:52:46;2.92;;;2.33;;
22871;SDS011;11603;44.910;8.630;2023-01-10T03:55:13;4.28;;;2.30;;
22871;SDS011;11603;44.910;8.630;2023-01-10T03:57:43;4.80;;;2.30;;
22871;SDS011;11603;44.910;8.630;2023-01-10T04:00:11;3.28;;;2.38;;
22871;SDS011;11603;44.910;8.630;2023-01-10T04:02:38;5.97;;;2.03;;
22871;SDS011;11603;44.910;8.630;2023-01-10T04:05:04;2.33;;;1.80;;
22871;SDS011;11603;44.910;8.630;2023-01-10T04:07:30;2.60;;;1.98;;
22871;SDS011;11603;44.910;8.630;2023-01-10T04:09:56;3.58;;;2.35;;
22871;SDS011;11603;44.910;8.630;2023-01-10T04:12:21;2.92;;;2.40;;
22871;SDS011;11603;44.910;8.630;2023-01-10T04:14:48;2.95;;;1.98;;
22871;SDS011;11603;44.910;8.630;2023-01-10T04:17:13;1.75;;;1.55;;
22871;SDS011;11603;44.910;8.630;2023-01-10T04:19:40;2.38;;;1.65;;
22871;SDS011;11603;44.910;8.630;2023-01-10T04:22:06;5.50;;;1.60;;
22871;SDS011;11603;44.910;8.630;2023-01-10T04:24:32;3.38;;;2.25;;
22871;SDS011;11603;44.910;8.630;2023-01-10T04:26:57;7.43;;;2.65;;
22871;SDS011;11603;44.910;8.630;2023-01-10T04:29:23;5.50;;;2.60;;
22871;SDS011;11603;44.910;8.630;2023-01-10T04:31:53;2.92;;;2.05;;
22871;SDS011;11603;44.910;8.630;2023-01-10T04:34:18;5.53;;;2.92;;
22871;SDS011;11603;44.910;8.630;2023-01-10T04:36:44;4.55;;;3.00;;
22871;SDS011;11603;44.910;8.630;2023-01-10T04:39:10;4.22;;;3.17;;
22871;SDS011;11603;44.910;8.630;2023-01-10T04:41:36;4.03;;;2.90;;
22871;SDS011;11603;44.910;8.630;2023-01-10T04:44:02;7.72;;;4.00;;
22871;SDS011;11603;44.910;8.630;2023-01-10T04:46:28;4.05;;;2.70;;
22871;SDS011;11603;44.910;8.630;2023-01-10T04:48:53;4.32;;;2.80;;
22871;SDS011;11603;44.910;8.630;2023-01-10T04:51:19;5.15;;;3.40;;
22871;SDS011;11603;44.910;8.630;2023-01-10T04:53:45;5.50;;;3.38;;
22871;SDS011;11603;44.910;8.630;2023-01-10T04:56:14;5.43;;;3.55;;
22871;SDS011;11603;44.910;8.630;2023-01-10T04:58:44;4.97;;;3.30;;
22871;SDS011;11603;44.910;8.630;2023-01-10T05:01:11;12.13;;;3.25;;
22871;SDS011;11603;44.910;8.630;2023-01-10T05:03:39;4.85;;;3.03;;
22871;SDS011;11603;44.910;8.630;2023-01-10T05:06:05;5.82;;;2.42;;
22871;SDS011;11603;44.910;8.630;2023-01-10T05:08:31;3.10;;;1.80;;
22871;SDS011;11603;44.910;8.630;2023-01-10T05:10:57;2.70;;;1.98;;
22871;SDS011;11603;44.910;8.630;2023-01-10T05:13:22;3.40;;;1.85;;
22871;SDS011;11603;44.910;8.630;2023-01-10T05:15:49;4.15;;;2.03;;
22871;SDS011;11603;44.910;8.630;2023-01-10T05:18:18;2.03;;;1.70;;
22871;SDS011;11603;44.910;8.630;2023-01-10T05:20:43;2.78;;;2.08;;
22871;SDS011;11603;44.910;8.630;2023-01-10T05:23:09;6.40;;;1.70;;
22871;SDS011;11603;44.910;8.630;2023-01-10T05:25:34;4.72;;;1.70;;
22871;SDS011;11603;44.910;8.630;2023-01-10T05:28:00;3.72;;;1.58;;
22871;SDS011;11603;44.910;8.630;2023-01-10T05:30:25;3.42;;;1.70;;
22871;SDS011;11603;44.910;8.630;2023-01-10T05:32:51;1.58;;;1.40;;
22871;SDS011;11603;44.910;8.630;2023-01-10T05:35:16;2.97;;;2.10;;
22871;SDS011;11603;44.910;8.630;2023-01-10T05:37:42;3.55;;;1.50;;
22871;SDS011;11603;44.910;8.630;2023-01-10T05:40:07;4.18;;;2.08;;
22871;SDS011;11603;44.910;8.630;2023-01-10T05:42:33;2.92;;;1.70;;
22871;SDS011;11603;44.910;8.630;2023-01-10T05:44:59;3.90;;;1.80;;
22871;SDS011;11603;44.910;8.630;2023-01-10T05:47:24;2.53;;;1.65;;
22871;SDS011;11603;44.910;8.630;2023-01-10T05:49:51;2.60;;;1.65;;
22871;SDS011;11603;44.910;8.630;2023-01-10T05:52:16;2.85;;;1.98;;
22871;SDS011;11603;44.910;8.630;2023-01-10T05:54:42;1.83;;;1.50;;
22871;SDS011;11603;44.910;8.630;2023-01-10T05:57:07;2.67;;;1.90;;
22871;SDS011;11603;44.910;8.630;2023-01-10T05:59:33;4.22;;;1.50;;
22871;SDS011;11603;44.910;8.630;2023-01-10T06:01:58;6.30;;;1.63;;
22871;SDS011;11603;44.910;8.630;2023-01-10T06:04:23;4.70;;;1.70;;
22871;SDS011;11603;44.910;8.630;2023-01-10T06:06:50;2.65;;;1.70;;
22871;SDS011;11603;44.910;8.630;2023-01-10T06:09:16;5.10;;;1.50;;
22871;SDS011;11603;44.910;8.630;2023-01-10T06:11:41;2.70;;;1.60;;
22871;SDS011;11603;44.910;8.630;2023-01-10T06:14:07;1.83;;;1.45;;
22871;SDS011;11603;44.910;8.630;2023-01-10T06:16:32;2.13;;;1.35;;
22871;SDS011;11603;44.910;8.630;2023-01-10T06:18:58;3.95;;;1.63;;
22871;SDS011;11603;44.910;8.630;2023-01-10T06:21:23;1.85;;;1.33;;
22871;SDS011;11603;44.910;8.630;2023-01-10T06:23:48;2.90;;;1.48;;
22871;SDS011;11603;44.910;8.630;2023-01-10T06:26:14;2.00;;;1.33;;
22871;SDS011;11603;44.910;8.630;2023-01-10T06:28:39;2.78;;;1.40;;
22871;SDS011;11603;44.910;8.630;2023-01-10T06:31:06;2.53;;;1.50;;
22871;SDS011;11603;44.910;8.630;2023-01-10T06:33:34;2.40;;;1.35;;
22871;SDS011;11603;44.910;8.630;2023-01-10T06:35:59;3.22;;;1.40;;
22871;SDS011;11603;44.910;8.630;2023-01-10T06:38:25;1.80;;;1.30;;
22871;SDS011;11603;44.910;8.630;2023-01-10T06:40:50;6.88;;;2.20;;
22871;SDS011;11603;44.910;8.630;2023-01-10T06:43:16;6.20;;;2.45;;
22871;SDS011;11603;44.910;8.630;2023-01-10T06:45:42;3.83;;;1.75;;
22871;SDS011;11603;44.910;8.630;2023-01-10T06:48:07;8.73;;;2.53;;
22871;SDS011;11603;44.910;8.630;2023-01-10T06:50:33;5.72;;;2.60;;
22871;SDS011;11603;44.910;8.630;2023-01-10T06:52:59;3.72;;;2.00;;
22871;SDS011;11603;44.910;8.630;2023-01-10T06:55:26;3.97;;;1.73;;
22871;SDS011;11603;44.910;8.630;2023-01-10T06:57:53;6.70;;;2.22;;
22871;SDS011;11603;44.910;8.630;2023-01-10T07:00:20;7.90;;;2.00;;
22871;SDS011;11603;44.910;8.630;2023-01-10T07:02:46;3.40;;;1.60;;
22871;SDS011;11603;44.910;8.630;2023-01-10T07:05:11;2.65;;;1.45;;
22871;SDS011;11603;44.910;8.630;2023-01-10T07:07:37;8.07;;;1.90;;
22871;SDS011;11603;44.910;8.630;2023-01-10T07:10:02;7.20;;;1.98;;
22871;SDS011;11603;44.910;8.630;2023-01-10T07:12:28;3.58;;;1.63;;
22871;SDS011;11603;44.910;8.630;2023-01-10T07:14:54;18.98;;;3.38;;
22871;SDS011;11603;44.910;8.630;2023-01-10T07:17:19;9.40;;;3.28;;
22871;SDS011;11603;44.910;8.630;2023-01-10T07:19:45;5.82;;;2.28;;
22871;SDS011;11603;44.910;8.630;2023-01-10T07:22:10;3.40;;;2.30;;
22871;SDS011;11603;44.910;8.630;2023-01-10T07:24:36;7.97;;;2.80;;
22871;SDS011;11603;44.910;8.630;2023-01-10T07:27:01;6.28;;;2.15;;
22871;SDS011;11603;44.910;8.630;2023-01-10T07:29:27;3.80;;;1.98;;
22871;SDS011;11603;44.910;8.630;2023-01-10T07:31:52;9.27;;;2.45;;
22871;SDS011;11603;44.910;8.630;2023-01-10T07:34:18;2.03;;;1.65;;
22871;SDS011;11603;44.910;8.630;2023-01-10T07:36:43;7.40;;;2.05;;
22871;SDS011;11603;44.910;8.630;2023-01-10T07:39:09;7.07;;;2.40;;
22871;SDS011;11603;44.910;8.630;2023-01-10T07:41:35;3.97;;;2.22;;
22871;SDS011;11603;44.910;8.630;2023-01-10T07:44:01;13.75;;;3.35;;
22871;SDS011;11603;44.910;8.630;2023-01-10T07:46:27;10.00;;;2.42;;
22871;SDS011;11603;44.910;8.630;2023-01-10T07:48:52;12.52;;;2.85;;
22871;SDS011;11603;44.910;8.630;2023-01-10T07:51:17;6.20;;;1.90;;
22871;SDS011;11603;44.910;8.630;2023-01-10T07:53:43;7.47;;;2.33;;
22871;SDS011;11603;44.910;8.630;2023-01-10T07:56:08;5.43;;;2.38;;
22871;SDS011;11603;44.910;8.630;2023-01-10T07:58:34;8.25;;;1.90;;
22871;SDS011;11603;44.910;8.630;2023-01-10T08:01:00;6.03;;;2.35;;
22871;SDS011;11603;44.910;8.630;2023-01-10T08:03:28;10.93;;;2.53;;
22871;SDS011;11603;44.910;8.630;2023-01-10T08:06:00;5.18;;;2.22;;
22871;SDS011;11603;44.910;8.630;2023-01-10T08:08:30;4.55;;;2.08;;
22871;SDS011;11603;44.910;8.630;2023-01-10T08:10:57;6.63;;;2.30;;
22871;SDS011;11603;44.910;8.630;2023-01-10T08:13:23;9.20;;;2.25;;
22871;SDS011;11603;44.910;8.630;2023-01-10T08:15:49;3.83;;;2.03;;
22871;SDS011;11603;44.910;8.630;2023-01-10T08:18:15;5.82;;;2.60;;
22871;SDS011;11603;44.910;8.630;2023-01-10T08:20:41;7.22;;;2.00;;
22871;SDS011;11603;44.910;8.630;2023-01-10T08:23:07;5.50;;;1.95;;
22871;SDS011;11603;44.910;8.630;2023-01-10T08:25:32;6.35;;;1.83;;
22871;SDS011;11603;44.910;8.630;2023-01-10T08:27:58;5.78;;;2.22;;
22871;SDS011;11603;44.910;8.630;2023-01-10T08:30:23;10.95;;;2.47;;
22871;SDS011;11603;44.910;8.630;2023-01-10T08:32:49;6.22;;;2.20;;
22871;SDS011;11603;44.910;8.630;2023-01-10T08:35:16;3.63;;;2.30;;
22871;SDS011;11603;44.910;8.630;2023-01-10T08:37:42;7.13;;;2.35;;
22871;SDS011;11603;44.910;8.630;2023-01-10T08:40:08;6.47;;;2.30;;
22871;SDS011;11603;44.910;8.630;2023-01-10T08:42:34;3.55;;;2.17;;
22871;SDS011;11603;44.910;8.630;2023-01-10T08:44:59;10.70;;;2.60;;
22871;SDS011;11603;44.910;8.630;2023-01-10T08:47:25;5.40;;;2.58;;
22871;SDS011;11603;44.910;8.630;2023-01-10T08:49:50;4.05;;;2.20;;
22871;SDS011;11603;44.910;8.630;2023-01-10T08:52:16;5.07;;;2.22;;
22871;SDS011;11603;44.910;8.630;2023-01-10T08:54:41;7.60;;;2.53;;
22871;SDS011;11603;44.910;8.630;2023-01-10T08:57:07;8.13;;;2.50;;
22871;SDS011;11603;44.910;8.630;2023-01-10T08:59:33;6.00;;;2.50;;
22871;SDS011;11603;44.910;8.630;2023-01-10T09:01:58;3.70;;;2.80;;
22871;SDS011;11603;44.910;8.630;2023-01-10T09:04:27;6.10;;;3.10;;
22871;SDS011;11603;44.910;8.630;2023-01-10T09:06:54;9.35;;;3.53;;
22871;SDS011;11603;44.910;8.630;2023-01-10T09:09:19;5.07;;;3.22;;
22871;SDS011;11603;44.910;8.630;2023-01-10T09:11:45;5.82;;;3.10;;
22871;SDS011;11603;44.910;8.630;2023-01-10T09:14:11;3.80;;;2.70;;
22871;SDS011;11603;44.910;8.630;2023-01-10T09:16:36;6.80;;;2.60;;
22871;SDS011;11603;44.910;8.630;2023-01-10T09:19:02;4.50;;;2.60;;
22871;SDS011;11603;44.910;8.630;2023-01-10T09:21:27;7.55;;;2.53;;
22871;SDS011;11603;44.910;8.630;2023-01-10T09:23:53;7.68;;;2.50;;
22871;SDS011;11603;44.910;8.630;2023-01-10T09:26:18;9.27;;;2.67;;
22871;SDS011;11603;44.910;8.630;2023-01-10T09:28:44;5.95;;;2.22;;
22871;SDS011;11603;44.910;8.630;2023-01-10T09:31:09;5.63;;;2.30;;
22871;SDS011;11603;44.910;8.630;2023-01-10T09:33:36;3.03;;;2.08;;
22871;SDS011;11603;44.910;8.630;2023-01-10T09:36:02;8.60;;;2.00;;
22871;SDS011;11603;44.910;8.630;2023-01-10T09:38:28;3.92;;;1.70;;
22871;SDS011;11603;44.910;8.630;2023-01-10T09:46:24;4.18;;;2.25;;
22871;SDS011;11603;44.910;8.630;2023-01-10T09:49:00;4.18;;;2.05;;
22871;SDS011;11603;44.910;8.630;2023-01-10T09:54:06;5.50;;;1.90;;
22871;SDS011;11603;44.910;8.630;2023-01-10T09:56:37;3.55;;;2.30;;
22871;SDS011;11603;44.910;8.630;2023-01-10T09:59:04;7.45;;;2.22;;
22871;SDS011;11603;44.910;8.630;2023-01-10T10:01:33;5.38;;;1.83;;
22871;SDS011;11603;44.910;8.630;2023-01-10T10:06:40;7.65;;;1.85;;
22871;SDS011;11603;44.910;8.630;2023-01-10T10:09:07;2.33;;;1.60;;
22871;SDS011;11603;44.910;8.630;2023-01-10T10:14:31;4.65;;;2.00;;
22871;SDS011;11603;44.910;8.630;2023-01-10T10:17:14;7.72;;;1.98;;
22871;SDS011;11603;44.910;8.630;2023-01-10T10:22:32;5.38;;;1.70;;
22871;SDS011;11603;44.910;8.630;2023-01-10T10:36:26;3.67;;;2.13;;
22871;SDS011;11603;44.910;8.630;2023-01-10T10:39:02;4.53;;;2.35;;
22871;SDS011;11603;44.910;8.630;2023-01-10T10:41:36;4.60;;;2.00;;
22871;SDS011;11603;44.910;8.630;2023-01-10T10:44:21;4.85;;;2.13;;
22871;SDS011;11603;44.910;8.630;2023-01-10T10:46:58;15.35;;;2.38;;
22871;SDS011;11603;44.910;8.630;2023-01-10T10:52:14;3.60;;;1.70;;
22871;SDS011;11603;44.910;8.630;2023-01-10T10:54:45;8.25;;;1.77;;
22871;SDS011;11603;44.910;8.630;2023-01-10T10:57:11;2.63;;;1.60;;
22871;SDS011;11603;44.910;8.630;2023-01-10T10:59:37;14.15;;;2.40;;
22871;SDS011;11603;44.910;8.630;2023-01-10T11:02:08;3.15;;;2.05;;
22871;SDS011;11603;44.910;8.630;2023-01-10T11:04:42;5.43;;;2.00;;
22871;SDS011;11603;44.910;8.630;2023-01-10T11:07:10;9.80;;;2.33;;
22871;SDS011;11603;44.910;8.630;2023-01-10T11:09:40;5.75;;;2.08;;
22871;SDS011;11603;44.910;8.630;2023-01-10T11:12:30;2.63;;;1.73;;
22871;SDS011;11603;44.910;8.630;2023-01-10T11:14:57;2.63;;;1.90;;
22871;SDS011;11603;44.910;8.630;2023-01-10T11:17:25;3.78;;;1.73;;
22871;SDS011;11603;44.910;8.630;2023-01-10T11:20:05;4.75;;;1.30;;
22871;SDS011;11603;44.910;8.630;2023-01-10T11:22:39;1.98;;;1.48;;
22871;SDS011;11603;44.910;8.630;2023-01-10T11:25:13;2.63;;;1.55;;
22871;SDS011;11603;44.910;8.630;2023-01-10T11:30:23;5.10;;;1.80;;
22871;SDS011;11603;44.910;8.630;2023-01-10T11:33:15;1.75;;;1.40;;
22871;SDS011;11603;44.910;8.630;2023-01-10T11:35:56;4.07;;;1.70;;
22871;SDS011;11603;44.910;8.630;2023-01-10T11:38:28;2.38;;;1.33;;
22871;SDS011;11603;44.910;8.630;2023-01-10T11:41:04;3.83;;;1.70;;
22871;SDS011;11603;44.910;8.630;2023-01-10T11:43:35;4.80;;;1.58;;
22871;SDS011;11603;44.910;8.630;2023-01-10T11:46:06;4.30;;;1.65;;
22871;SDS011;11603;44.910;8.630;2023-01-10T11:51:15;1.58;;;1.20;;
22871;SDS011;11603;44.910;8.630;2023-01-10T11:53:43;1.63;;;1.10;;
22871;SDS011;11603;44.910;8.630;2023-01-10T11:56:10;5.10;;;1.10;;
22871;SDS011;11603;44.910;8.630;2023-01-10T11:58:46;2.75;;;0.90;;
22871;SDS011;11603;44.910;8.630;2023-01-10T12:01:28;2.13;;;1.00;;
22871;SDS011;11603;44.910;8.630;2023-01-10T12:04:01;1.50;;;0.85;;
22871;SDS011;11603;44.910;8.630;2023-01-10T12:06:27;8.73;;;1.48;;
22871;SDS011;11603;44.910;8.630;2023-01-10T12:08:54;1.30;;;1.00;;
22871;SDS011;11603;44.910;8.630;2023-01-10T12:13:53;2.92;;;1.30;;
22871;SDS011;11603;44.910;8.630;2023-01-10T12:16:27;3.70;;;1.10;;
22871;SDS011;11603;44.910;8.630;2023-01-10T12:18:59;3.47;;;1.30;;
22871;SDS011;11603;44.910;8.630;2023-01-10T12:21:31;3.38;;;1.30;;
22871;SDS011;11603;44.910;8.630;2023-01-10T12:24:19;2.50;;;1.30;;
22871;SDS011;11603;44.910;8.630;2023-01-10T12:26:49;1.60;;;1.00;;
22871;SDS011;11603;44.910;8.630;2023-01-10T12:29:24;2.97;;;1.10;;
22871;SDS011;11603;44.910;8.630;2023-01-10T12:31:54;1.45;;;1.00;;
22871;SDS011;11603;44.910;8.630;2023-01-10T12:34:23;1.80;;;1.00;;
22871;SDS011;11603;44.910;8.630;2023-01-10T12:39:38;1.73;;;1.00;;
22871;SDS011;11603;44.910;8.630;2023-01-10T12:45:13;2.17;;;1.10;;
22871;SDS011;11603;44.910;8.630;2023-01-10T12:50:30;2.15;;;1.00;;
22871;SDS011;11603;44.910;8.630;2023-01-10T12:53:09;0.82;;;0.70;;
22871;SDS011;11603;44.910;8.630;2023-01-10T12:55:43;1.77;;;0.70;;
22871;SDS011;11603;44.910;8.630;2023-01-10T12:58:14;1.80;;;0.90;;
22871;SDS011;11603;44.910;8.630;2023-01-10T13:00:46;4.10;;;1.15;;
22871;SDS011;11603;44.910;8.630;2023-01-10T13:03:18;1.25;;;0.95;;
22871;SDS011;11603;44.910;8.630;2023-01-10T13:05:46;5.38;;;1.00;;
22871;SDS011;11603;44.910;8.630;2023-01-10T13:08:14;5.68;;;0.90;;
22871;SDS011;11603;44.910;8.630;2023-01-10T13:10:48;3.65;;;0.82;;
22871;SDS011;11603;44.910;8.630;2023-01-10T13:13:21;5.50;;;1.63;;
22871;SDS011;11603;44.910;8.630;2023-01-10T13:15:52;1.17;;;0.80;;
22871;SDS011;11603;44.910;8.630;2023-01-10T13:18:25;1.50;;;0.80;;
22871;SDS011;11603;44.910;8.630;2023-01-10T13:21:07;1.98;;;0.98;;
22871;SDS011;11603;44.910;8.630;2023-01-10T13:26:17;2.85;;;0.88;;
22871;SDS011;11603;44.910;8.630;2023-01-10T13:28:55;1.50;;;0.90;;
22871;SDS011;11603;44.910;8.630;2023-01-10T13:31:27;5.60;;;0.73;;
22871;SDS011;11603;44.910;8.630;2023-01-10T13:36:34;1.08;;;0.80;;
22871;SDS011;11603;44.910;8.630;2023-01-10T13:39:04;1.60;;;1.02;;
22871;SDS011;11603;44.910;8.630;2023-01-10T14:06:00;1.05;;;0.90;;
22871;SDS011;11603;44.910;8.630;2023-01-10T14:08:28;0.90;;;0.80;;
22871;SDS011;11603;44.910;8.630;2023-01-10T14:11:05;5.28;;;1.10;;
22871;SDS011;11603;44.910;8.630;2023-01-10T14:13:35;3.65;;;0.80;;
22871;SDS011;11603;44.910;8.630;2023-01-10T14:16:01;3.80;;;1.92;;
22871;SDS011;11603;44.910;8.630;2023-01-10T14:18:31;4.25;;;0.80;;
22871;SDS011;11603;44.910;8.630;2023-01-10T14:21:03;1.05;;;0.90;;
22871;SDS011;11603;44.910;8.630;2023-01-10T14:26:01;2.13;;;0.85;;
22871;SDS011;11603;44.910;8.630;2023-01-10T14:28:29;2.15;;;0.98;;
22871;SDS011;11603;44.910;8.630;2023-01-10T14:33:42;1.38;;;0.90;;
22871;SDS011;11603;44.910;8.630;2023-01-10T14:36:12;2.17;;;0.90;;
22871;SDS011;11603;44.910;8.630;2023-01-10T14:38:41;3.63;;;0.90;;
22871;SDS011;11603;44.910;8.630;2023-01-10T14:41:11;1.63;;;1.00;;
22871;SDS011;11603;44.910;8.630;2023-01-10T14:44:00;1.88;;;1.02;;
22871;SDS011;11603;44.910;8.630;2023-01-10T14:46:32;5.60;;;0.98;;
22871;SDS011;11603;44.910;8.630;2023-01-10T14:49:19;2.88;;;0.98;;
22871;SDS011;11603;44.910;8.630;2023-01-10T14:51:52;3.67;;;0.95;;
22871;SDS011;11603;44.910;8.630;2023-01-10T14:54:25;5.57;;;1.45;;
22871;SDS011;11603;44.910;8.630;2023-01-10T14:56:53;1.85;;;1.20;;
22871;SDS011;11603;44.910;8.630;2023-01-10T14:59:28;10.60;;;6.57;;
22871;SDS011;11603;44.910;8.630;2023-01-10T15:02:01;12.43;;;5.15;;
22871;SDS011;11603;44.910;8.630;2023-01-10T15:04:36;7.05;;;2.60;;
22871;SDS011;11603;44.910;8.630;2023-01-10T15:07:12;4.63;;;1.60;;
22871;SDS011;11603;44.910;8.630;2023-01-10T15:09:46;5.05;;;1.40;;
22871;SDS011;11603;44.910;8.630;2023-01-10T15:12:15;2.95;;;1.35;;
22871;SDS011;11603;44.910;8.630;2023-01-10T15:14:43;3.10;;;1.17;;
22871;SDS011;11603;44.910;8.630;2023-01-10T15:17:12;4.45;;;1.20;;
22871;SDS011;11603;44.910;8.630;2023-01-10T15:19:41;1.88;;;1.02;;
22871;SDS011;11603;44.910;8.630;2023-01-10T15:22:28;3.45;;;1.13;;
22871;SDS011;11603;44.910;8.630;2023-01-10T15:24:56;3.08;;;1.02;;
22871;SDS011;11603;44.910;8.630;2023-01-10T15:27:29;3.30;;;0.85;;
22871;SDS011;11603;44.910;8.630;2023-01-10T15:29:58;3.65;;;0.90;;
22871;SDS011;11603;44.910;8.630;2023-01-10T15:35:01;3.95;;;1.08;;
22871;SDS011;11603;44.910;8.630;2023-01-10T15:37:27;5.00;;;1.50;;
22871;SDS011;11603;44.910;8.630;2023-01-10T15:40:00;4.53;;;1.88;;
22871;SDS011;11603;44.910;8.630;2023-01-10T15:42:29;7.63;;;2.10;;
22871;SDS011;11603;44.910;8.630;2023-01-10T15:44:55;6.65;;;2.17;;
22871;SDS011;11603;44.910;8.630;2023-01-10T15:50:21;4.90;;;2.38;;
22871;SDS011;11603;44.910;8.630;2023-01-10T15:52:59;7.32;;;2.55;;
22871;SDS011;11603;44.910;8.630;2023-01-10T16:00:59;4.70;;;1.77;;
22871;SDS011;11603;44.910;8.630;2023-01-10T16:03:42;2.05;;;1.33;;
22871;SDS011;11603;44.910;8.630;2023-01-10T16:06:31;4.70;;;1.70;;
22871;SDS011;11603;44.910;8.630;2023-01-10T16:10:05;6.15;;;2.03;;
22871;SDS011;11603;44.910;8.630;2023-01-10T16:12:40;10.82;;;1.90;;
22871;SDS011;11603;44.910;8.630;2023-01-10T16:15:27;5.30;;;1.95;;
22871;SDS011;11603;44.910;8.630;2023-01-10T16:17:55;6.63;;;2.20;;
22871;SDS011;11603;44.910;8.630;2023-01-10T16:20:24;16.63;;;2.20;;
22871;SDS011;11603;44.910;8.630;2023-01-10T16:22:53;14.45;;;2.97;;
22871;SDS011;11603;44.910;8.630;2023-01-10T16:25:25;10.60;;;2.88;;
22871;SDS011;11603;44.910;8.630;2023-01-10T16:27:56;14.60;;;3.50;;
22871;SDS011;11603;44.910;8.630;2023-01-10T16:30:26;16.33;;;3.85;;
22871;SDS011;11603;44.910;8.630;2023-01-10T16:32:53;18.20;;;4.40;;
22871;SDS011;11603;44.910;8.630;2023-01-10T16:35:20;16.88;;;4.30;;
22871;SDS011;11603;44.910;8.630;2023-01-10T16:37:46;16.23;;;3.30;;
22871;SDS011;11603;44.910;8.630;2023-01-10T16:40:22;8.07;;;2.90;;
22871;SDS011;11603;44.910;8.630;2023-01-10T16:42:51;11.85;;;3.28;;
22871;SDS011;11603;44.910;8.630;2023-01-10T16:45:36;13.02;;;3.25;;
22871;SDS011;11603;44.910;8.630;2023-01-10T16:48:01;13.02;;;3.53;;
22871;SDS011;11603;44.910;8.630;2023-01-10T16:50:27;16.02;;;5.10;;
22871;SDS011;11603;44.910;8.630;2023-01-10T16:52:53;13.85;;;3.78;;
22871;SDS011;11603;44.910;8.630;2023-01-10T16:55:19;13.57;;;3.53;;
22871;SDS011;11603;44.910;8.630;2023-01-10T16:57:57;9.23;;;2.67;;
22871;SDS011;11603;44.910;8.630;2023-01-10T17:00:23;15.07;;;3.75;;
22871;SDS011;11603;44.910;8.630;2023-01-10T17:02:48;12.38;;;3.42;;
22871;SDS011;11603;44.910;8.630;2023-01-10T17:05:14;7.88;;;3.28;;
22871;SDS011;11603;44.910;8.630;2023-01-10T17:07:39;8.15;;;3.42;;
22871;SDS011;11603;44.910;8.630;2023-01-10T17:10:05;16.60;;;3.85;;
22871;SDS011;11603;44.910;8.630;2023-01-10T17:12:32;9.60;;;2.90;;
22871;SDS011;11603;44.910;8.630;2023-01-10T17:15:00;7.38;;;2.70;;
22871;SDS011;11603;44.910;8.630;2023-01-10T17:17:29;7.65;;;3.20;;